sensor_id;sensor_type;location;lat;lon;timestamp;temperature;humidity
43963;DHT22;29622;45.534;9.242;2022-11-11T00:08:30;13.90;69.90
43963;DHT22;29622;45.534;9.242;2022-11-11T00:46:52;13.60;69.70
43963;DHT22;29622;45.534;9.242;2022-11-11T01:12:39;14.40;70.30
43963;DHT22;29622;45.534;9.242;2022-11-11T01:18:38;14.80;69.20
43963;DHT22;29622;45.534;9.242;2022-11-11T01:30:31;14.80;68.20
43963;DHT22;29622;45.534;9.242;2022-11-11T02:33:32;13.50;67.60
43963;DHT22;29622;45.534;9.242;2022-11-11T02:39:08;13.40;67.40
43963;DHT22;29622;45.534;9.242;2022-11-11T04:02:32;12.40;67.70
43963;DHT22;29622;45.534;9.242;2022-11-11T04:33:31;12.10;68.40
43963;DHT22;29622;45.534;9.242;2022-11-11T04:39:45;12.10;68.40
43963;DHT22;29622;45.534;9.242;2022-11-11T04:51:44;12.20;69.00
43963;DHT22;29622;45.534;9.242;2022-11-11T05:04:14;12.70;68.30
43963;DHT22;29622;45.534;9.242;2022-11-11T05:10:10;12.60;68.40
43963;DHT22;29622;45.534;9.242;2022-11-11T05:29:31;13.00;67.70
43963;DHT22;29622;45.534;9.242;2022-11-11T05:48:51;12.70;67.60
43963;DHT22;29622;45.534;9.242;2022-11-11T05:54:36;12.60;67.80
43963;DHT22;29622;45.534;9.242;2022-11-11T06:00:24;12.60;67.70
43963;DHT22;29622;45.534;9.242;2022-11-11T06:05:47;12.40;67.50
43963;DHT22;29622;45.534;9.242;2022-11-11T06:11:35;12.30;67.80
43963;DHT22;29622;45.534;9.242;2022-11-11T06:24:34;12.10;68.50
43963;DHT22;29622;45.534;9.242;2022-11-11T06:30:09;12.60;68.20
43963;DHT22;29622;45.534;9.242;2022-11-11T06:35:49;12.70;67.70
43963;DHT22;29622;45.534;9.242;2022-11-11T06:41:55;12.60;67.70
43963;DHT22;29622;45.534;9.242;2022-11-11T06:47:23;12.60;67.80
43963;DHT22;29622;45.534;9.242;2022-11-11T06:53:16;12.70;67.80
43963;DHT22;29622;45.534;9.242;2022-11-11T07:05:07;12.80;67.70
43963;DHT22;29622;45.534;9.242;2022-11-11T07:17:18;12.70;68.10
43963;DHT22;29622;45.534;9.242;2022-11-11T07:35:25;12.80;68.00
43963;DHT22;29622;45.534;9.242;2022-11-11T07:40:44;12.80;67.90
43963;DHT22;29622;45.534;9.242;2022-11-11T08:04:55;14.00;67.70
43963;DHT22;29622;45.534;9.242;2022-11-11T08:10:36;14.00;66.60
43963;DHT22;29622;45.534;9.242;2022-11-11T08:16:02;13.80;66.80
43963;DHT22;29622;45.534;9.242;2022-11-11T09:11:07;14.50;66.70
43963;DHT22;29622;45.534;9.242;2022-11-11T09:17:00;14.70;66.20
43963;DHT22;29622;45.534;9.242;2022-11-11T09:22:31;14.90;66.00
43963;DHT22;29622;45.534;9.242;2022-11-11T09:53:22;15.30;65.00
43963;DHT22;29622;45.534;9.242;2022-11-11T09:58:49;15.50;64.60
43963;DHT22;29622;45.534;9.242;2022-11-11T10:22:04;16.10;63.80
43963;DHT22;29622;45.534;9.242;2022-11-11T10:27:28;16.20;63.20
43963;DHT22;29622;45.534;9.242;2022-11-11T10:33:03;16.40;62.70
43963;DHT22;29622;45.534;9.242;2022-11-11T10:38:32;16.50;62.00
43963;DHT22;29622;45.534;9.242;2022-11-11T10:43:53;16.80;62.00
43963;DHT22;29622;45.534;9.242;2022-11-11T10:49:18;17.10;61.30
43963;DHT22;29622;45.534;9.242;2022-11-11T10:54:44;17.10;60.70
43963;DHT22;29622;45.534;9.242;2022-11-11T11:00:10;17.50;61.40
43963;DHT22;29622;45.534;9.242;2022-11-11T11:05:36;18.30;61.50
43963;DHT22;29622;45.534;9.242;2022-11-11T11:11:04;19.10;60.40
43963;DHT22;29622;45.534;9.242;2022-11-11T11:16:29;19.50;59.30
43963;DHT22;29622;45.534;9.242;2022-11-11T11:21:54;19.50;58.70
43963;DHT22;29622;45.534;9.242;2022-11-11T11:27:25;19.30;58.30
43963;DHT22;29622;45.534;9.242;2022-11-11T11:33:01;18.80;58.80
43963;DHT22;29622;45.534;9.242;2022-11-11T11:38:39;19.10;58.20
43963;DHT22;29622;45.534;9.242;2022-11-11T11:43:59;19.00;57.80
43963;DHT22;29622;45.534;9.242;2022-11-11T11:55:01;18.90;57.80
43963;DHT22;29622;45.534;9.242;2022-11-11T12:00:30;19.30;57.80
43963;DHT22;29622;45.534;9.242;2022-11-11T12:06:12;19.70;56.80
43963;DHT22;29622;45.534;9.242;2022-11-11T12:11:41;20.00;56.10
43963;DHT22;29622;45.534;9.242;2022-11-11T12:34:00;19.80;55.70
43963;DHT22;29622;45.534;9.242;2022-11-11T12:45:02;19.50;55.60
43963;DHT22;29622;45.534;9.242;2022-11-11T12:50:40;19.50;55.80
43963;DHT22;29622;45.534;9.242;2022-11-11T13:02:19;19.90;55.40
43963;DHT22;29622;45.534;9.242;2022-11-11T13:08:07;19.80;55.10
43963;DHT22;29622;45.534;9.242;2022-11-11T13:19:14;19.90;55.10
43963;DHT22;29622;45.534;9.242;2022-11-11T13:24:35;19.90;55.00
43963;DHT22;29622;45.534;9.242;2022-11-11T13:35:38;19.90;54.80
43963;DHT22;29622;45.534;9.242;2022-11-11T13:41:03;19.90;54.60
43963;DHT22;29622;45.534;9.242;2022-11-11T13:52:04;19.80;54.70
43963;DHT22;29622;45.534;9.242;2022-11-11T13:57:25;19.60;54.70
43963;DHT22;29622;45.534;9.242;2022-11-11T14:02:47;19.50;54.90
43963;DHT22;29622;45.534;9.242;2022-11-11T14:08:06;19.50;55.00
43963;DHT22;29622;45.534;9.242;2022-11-11T14:18:52;19.40;55.10
43963;DHT22;29622;45.534;9.242;2022-11-11T14:24:33;19.40;55.00
43963;DHT22;29622;45.534;9.242;2022-11-11T14:29:55;19.40;54.90
43963;DHT22;29622;45.534;9.242;2022-11-11T14:35:43;19.50;54.80
43963;DHT22;29622;45.534;9.242;2022-11-11T14:41:51;19.60;54.60
43963;DHT22;29622;45.534;9.242;2022-11-11T14:58:19;19.70;54.50
43963;DHT22;29622;45.534;9.242;2022-11-11T15:37:01;18.50;56.40
43963;DHT22;29622;45.534;9.242;2022-11-11T15:47:47;18.30;57.20
43963;DHT22;29622;45.534;9.242;2022-11-11T15:53:10;18.20;57.40
43963;DHT22;29622;45.534;9.242;2022-11-11T15:58:31;18.00;57.70
43963;DHT22;29622;45.534;9.242;2022-11-11T16:03:50;17.80;58.00
43963;DHT22;29622;45.534;9.242;2022-11-11T16:09:12;17.70;58.30
43963;DHT22;29622;45.534;9.242;2022-11-11T16:14:42;17.50;58.60
43963;DHT22;29622;45.534;9.242;2022-11-11T16:20:03;17.30;58.90
43963;DHT22;29622;45.534;9.242;2022-11-11T16:25:22;17.20;59.20
43963;DHT22;29622;45.534;9.242;2022-11-11T16:30:42;17.00;59.40
43963;DHT22;29622;45.534;9.242;2022-11-11T16:36:09;16.80;59.80
43963;DHT22;29622;45.534;9.242;2022-11-11T16:41:30;16.70;60.20
43963;DHT22;29622;45.534;9.242;2022-11-11T16:46:52;16.60;60.40
43963;DHT22;29622;45.534;9.242;2022-11-11T16:52:14;16.40;60.60
43963;DHT22;29622;45.534;9.242;2022-11-11T16:57:39;16.30;61.00
43963;DHT22;29622;45.534;9.242;2022-11-11T17:03:21;16.10;61.40
43963;DHT22;29622;45.534;9.242;2022-11-11T17:08:43;15.90;61.90
43963;DHT22;29622;45.534;9.242;2022-11-11T17:14:03;15.90;62.10
43963;DHT22;29622;45.534;9.242;2022-11-11T17:19:23;15.90;62.40
43963;DHT22;29622;45.534;9.242;2022-11-11T17:24:42;15.90;62.60
43963;DHT22;29622;45.534;9.242;2022-11-11T17:30:01;15.80;62.70
43963;DHT22;29622;45.534;9.242;2022-11-11T17:35:20;15.80;63.00
43963;DHT22;29622;45.534;9.242;2022-11-11T17:40:43;15.80;63.20
43963;DHT22;29622;45.534;9.242;2022-11-11T17:46:04;15.80;63.30
43963;DHT22;29622;45.534;9.242;2022-11-11T17:51:24;15.80;63.40
43963;DHT22;29622;45.534;9.242;2022-11-11T17:56:43;15.80;63.50
43963;DHT22;29622;45.534;9.242;2022-11-11T18:02:04;15.90;63.50
43963;DHT22;29622;45.534;9.242;2022-11-11T18:07:23;15.80;63.60
43963;DHT22;29622;45.534;9.242;2022-11-11T18:12:43;15.80;63.90
43963;DHT22;29622;45.534;9.242;2022-11-11T18:18:03;15.80;64.00
43963;DHT22;29622;45.534;9.242;2022-11-11T18:23:22;15.70;64.20
43963;DHT22;29622;45.534;9.242;2022-11-11T18:28:42;15.60;64.40
43963;DHT22;29622;45.534;9.242;2022-11-11T18:34:01;15.60;64.70
43963;DHT22;29622;45.534;9.242;2022-11-11T18:39:20;15.60;64.80
43963;DHT22;29622;45.534;9.242;2022-11-11T18:44:39;15.60;64.80
43963;DHT22;29622;45.534;9.242;2022-11-11T18:49:58;15.60;65.10
43963;DHT22;29622;45.534;9.242;2022-11-11T18:55:17;15.60;65.10
43963;DHT22;29622;45.534;9.242;2022-11-11T19:00:36;15.70;65.20
43963;DHT22;29622;45.534;9.242;2022-11-11T19:06:05;15.70;64.80
43963;DHT22;29622;45.534;9.242;2022-11-11T19:11:25;15.60;65.20
43963;DHT22;29622;45.534;9.242;2022-11-11T19:16:46;15.50;65.50
43963;DHT22;29622;45.534;9.242;2022-11-11T19:22:05;15.40;65.50
43963;DHT22;29622;45.534;9.242;2022-11-11T19:27:24;15.40;65.70
43963;DHT22;29622;45.534;9.242;2022-11-11T19:32:43;15.40;65.80
43963;DHT22;29622;45.534;9.242;2022-11-11T19:38:02;15.30;65.90
43963;DHT22;29622;45.534;9.242;2022-11-11T19:43:22;15.30;65.80
43963;DHT22;29622;45.534;9.242;2022-11-11T19:48:43;15.30;66.00
43963;DHT22;29622;45.534;9.242;2022-11-11T19:54:02;15.20;66.40
43963;DHT22;29622;45.534;9.242;2022-11-11T19:59:21;15.20;66.10
43963;DHT22;29622;45.534;9.242;2022-11-11T20:04:40;15.10;66.10
43963;DHT22;29622;45.534;9.242;2022-11-11T20:10:00;15.00;66.40
43963;DHT22;29622;45.534;9.242;2022-11-11T20:15:19;15.00;66.70
43963;DHT22;29622;45.534;9.242;2022-11-11T20:20:38;15.20;66.40
43963;DHT22;29622;45.534;9.242;2022-11-11T20:26:02;15.60;66.20
43963;DHT22;29622;45.534;9.242;2022-11-11T20:31:24;15.90;66.00
43963;DHT22;29622;45.534;9.242;2022-11-11T20:36:43;16.10;65.50
43963;DHT22;29622;45.534;9.242;2022-11-11T20:42:02;16.00;65.30
43963;DHT22;29622;45.534;9.242;2022-11-11T20:47:21;15.80;65.20
43963;DHT22;29622;45.534;9.242;2022-11-11T20:52:40;15.50;65.50
43963;DHT22;29622;45.534;9.242;2022-11-11T20:57:59;15.50;65.90
43963;DHT22;29622;45.534;9.242;2022-11-11T21:03:18;15.40;65.60
43963;DHT22;29622;45.534;9.242;2022-11-11T21:08:39;15.30;65.80
43963;DHT22;29622;45.534;9.242;2022-11-11T21:13:58;15.00;65.90
43963;DHT22;29622;45.534;9.242;2022-11-11T21:19:19;14.80;66.10
43963;DHT22;29622;45.534;9.242;2022-11-11T21:24:38;14.60;66.40
43963;DHT22;29622;45.534;9.242;2022-11-11T21:29:57;14.40;66.60
43963;DHT22;29622;45.534;9.242;2022-11-11T21:35:16;14.30;66.80
43963;DHT22;29622;45.534;9.242;2022-11-11T21:40:35;14.10;66.90
43963;DHT22;29622;45.534;9.242;2022-11-11T21:46:02;14.00;67.10
43963;DHT22;29622;45.534;9.242;2022-11-11T21:51:24;13.80;67.20
43963;DHT22;29622;45.534;9.242;2022-11-11T21:56:44;13.70;67.40
43963;DHT22;29622;45.534;9.242;2022-11-11T22:02:03;13.60;67.50
43963;DHT22;29622;45.534;9.242;2022-11-11T22:07:23;13.50;67.70
43963;DHT22;29622;45.534;9.242;2022-11-11T22:12:44;13.50;67.70
43963;DHT22;29622;45.534;9.242;2022-11-11T22:18:03;13.50;67.70
43963;DHT22;29622;45.534;9.242;2022-11-11T22:23:23;13.60;67.80
43963;DHT22;29622;45.534;9.242;2022-11-11T22:28:42;13.70;67.80
43963;DHT22;29622;45.534;9.242;2022-11-11T22:34:10;13.70;67.80
43963;DHT22;29622;45.534;9.242;2022-11-11T22:39:30;13.60;67.90
43963;DHT22;29622;45.534;9.242;2022-11-11T22:44:49;13.50;68.00
43963;DHT22;29622;45.534;9.242;2022-11-11T22:50:08;13.40;68.30
43963;DHT22;29622;45.534;9.242;2022-11-11T22:55:27;13.40;68.40
43963;DHT22;29622;45.534;9.242;2022-11-11T23:00:46;13.40;68.50
43963;DHT22;29622;45.534;9.242;2022-11-11T23:06:08;13.50;68.50
43963;DHT22;29622;45.534;9.242;2022-11-11T23:11:29;13.50;68.60
43963;DHT22;29622;45.534;9.242;2022-11-11T23:16:49;13.50;68.60
43963;DHT22;29622;45.534;9.242;2022-11-11T23:22:08;13.50;68.60
43963;DHT22;29622;45.534;9.242;2022-11-11T23:27:27;13.60;68.70
43963;DHT22;29622;45.534;9.242;2022-11-11T23:32:46;13.70;68.70
43963;DHT22;29622;45.534;9.242;2022-11-11T23:38:05;13.70;68.80
43963;DHT22;29622;45.534;9.242;2022-11-11T23:43:25;13.80;68.90
43963;DHT22;29622;45.534;9.242;2022-11-11T23:48:44;13.80;69.10
43963;DHT22;29622;45.534;9.242;2022-11-11T23:54:03;14.10;69.30
43963;DHT22;29622;45.534;9.242;2022-11-11T23:59:23;14.10;69.30
